Time;durP1;ratioP1;P1;durP2;ratioP2;P2;SDS_P1;SDS_P2;PMS_P1;PMS_P2;Temp;Humidity;BMP_temperature;BMP_pressure;BME280_temperature;BME280_humidity;BME280_pressure;Samples;Min_cycle;Max_cycle;Signal;HPM_P1;HPM_P2
2023/12/19 00:01:09;;;;;;;2.30;1.50;;;11.00;99.90;;;;;;5035361;28;20664;-75
2023/12/19 00:03:34;;;;;;;1.50;0.88;;;11.00;99.90;;;;;;5035207;28;20120;-76
2023/12/19 00:06:00;;;;;;;1.40;0.60;;;11.00;99.90;;;;;;5035316;28;20029;-76
2023/12/19 00:08:26;;;;;;;1.52;0.68;;;11.00;99.90;;;;;;5034966;28;20465;-75
2023/12/19 00:10:52;;;;;;;2.20;0.80;;;10.90;99.90;;;;;;5017438;28;20033;-74
2023/12/19 00:13:17;;;;;;;2.03;0.65;;;10.90;99.90;;;;;;5035478;28;20112;-76
2023/12/19 00:15:43;;;;;;;3.58;1.10;;;10.90;99.90;;;;;;5035839;28;20022;-75
2023/12/19 00:18:09;;;;;;;2.40;0.90;;;10.80;99.90;;;;;;5034971;28;20041;-78
2023/12/19 00:20:35;;;;;;;2.15;0.95;;;10.90;99.90;;;;;;5017371;28;20032;-75
2023/12/19 00:23:00;;;;;;;1.33;0.93;;;10.80;99.90;;;;;;5034673;28;20470;-78
2023/12/19 00:25:27;;;;;;;2.38;0.90;;;10.80;99.90;;;;;;5035015;28;20103;-79
2023/12/19 00:27:53;;;;;;;1.27;0.88;;;10.80;99.90;;;;;;5035058;28;20033;-75
2023/12/19 00:30:19;;;;;;;1.52;0.98;;;10.80;99.90;;;;;;5035401;28;20273;-75
2023/12/19 00:32:45;;;;;;;1.55;0.95;;;10.80;99.90;;;;;;5034748;28;20061;-76
2023/12/19 00:35:11;;;;;;;1.42;1.15;;;10.80;99.90;;;;;;5035206;28;20033;-80
2023/12/19 00:37:37;;;;;;;2.85;1.27;;;10.80;99.90;;;;;;5016824;28;20136;-78
2023/12/19 00:40:04;;;;;;;1.92;1.10;;;10.70;99.90;;;;;;5017048;28;20525;-75
2023/12/19 00:42:30;;;;;;;1.75;1.27;;;10.80;99.90;;;;;;5035192;28;20037;-75
2023/12/19 00:44:55;;;;;;;2.45;1.67;;;10.80;99.90;;;;;;5035232;28;20395;-75
2023/12/19 00:47:21;;;;;;;2.20;1.67;;;10.80;99.90;;;;;;5034735;28;20029;-75
2023/12/19 00:49:47;;;;;;;2.25;1.83;;;10.70;99.90;;;;;;5034759;28;20367;-79
2023/12/19 00:52:13;;;;;;;3.35;1.52;;;10.80;99.90;;;;;;5034458;28;20474;-76
2023/12/19 00:54:38;;;;;;;3.70;2.20;;;10.70;99.90;;;;;;5016090;28;20389;-77
2023/12/19 00:57:04;;;;;;;2.92;1.88;;;10.70;99.90;;;;;;5016985;28;20030;-79
2023/12/19 00:59:30;;;;;;;5.47;1.90;;;10.70;99.90;;;;;;5034783;28;20109;-77
2023/12/19 01:01:56;;;;;;;3.22;1.88;;;10.70;99.90;;;;;;5017107;28;20065;-76
2023/12/19 01:04:22;;;;;;;2.97;1.77;;;10.70;99.90;;;;;;5034685;28;20037;-77
2023/12/19 01:06:47;;;;;;;5.00;1.67;;;10.70;99.90;;;;;;5016468;28;20028;-77
2023/12/19 01:09:13;;;;;;;1.95;1.50;;;10.70;99.90;;;;;;5016565;28;20041;-76
2023/12/19 01:11:39;;;;;;;2.90;2.35;;;10.70;99.90;;;;;;5034205;28;20132;-76
2023/12/19 01:14:05;;;;;;;4.72;1.80;;;10.70;99.90;;;;;;5017043;28;20443;-78
2023/12/19 01:16:31;;;;;;;2.88;1.80;;;10.70;99.90;;;;;;5016943;28;20048;-80
2023/12/19 01:18:57;;;;;;;1.77;0.95;;;10.70;99.90;;;;;;5034214;28;20033;-80
2023/12/19 01:21:23;;;;;;;1.35;1.15;;;10.70;99.90;;;;;;5034171;28;20168;-76
2023/12/19 01:23:48;;;;;;;2.22;1.00;;;10.60;99.90;;;;;;5034392;28;20488;-76
2023/12/19 01:26:14;;;;;;;1.30;0.95;;;10.60;99.90;;;;;;5034305;28;20044;-77
2023/12/19 01:28:40;;;;;;;0.77;0.77;;;10.60;99.90;;;;;;5016472;28;20128;-81
2023/12/19 01:31:06;;;;;;;1.40;0.80;;;10.60;99.90;;;;;;5033827;28;20025;-77
2023/12/19 01:33:31;;;;;;;1.00;0.70;;;10.60;99.90;;;;;;5033824;28;20097;-76
2023/12/19 01:35:57;;;;;;;0.95;0.85;;;10.60;99.90;;;;;;5015812;28;20469;-79
2023/12/19 01:38:23;;;;;;;1.95;0.80;;;10.50;99.90;;;;;;5015936;28;20022;-77
2023/12/19 01:40:48;;;;;;;0.70;0.70;;;10.50;99.90;;;;;;5033833;28;20311;-77
2023/12/19 01:43:22;;;;;;;1.42;0.80;;;10.50;99.90;;;;;;5033811;28;20108;-77
2023/12/19 01:45:50;;;;;;;2.10;0.70;;;10.40;99.90;;;;;;5016143;28;20485;-77
2023/12/19 01:48:17;;;;;;;1.60;0.70;;;10.40;99.90;;;;;;5016209;28;20025;-79
2023/12/19 01:50:43;;;;;;;1.00;0.70;;;10.40;99.90;;;;;;5033659;28;20359;-77
2023/12/19 01:53:10;;;;;;;0.90;0.90;;;10.40;99.90;;;;;;5033177;28;20099;-77
2023/12/19 01:55:38;;;;;;;2.25;0.90;;;10.40;99.90;;;;;;5033629;28;20018;-75
2023/12/19 01:58:04;;;;;;;3.70;0.60;;;10.30;99.90;;;;;;5033810;28;20487;-76
2023/12/19 02:00:30;;;;;;;0.82;0.50;;;10.30;99.90;;;;;;5033790;28;20076;-78
2023/12/19 02:02:57;;;;;;;0.57;0.52;;;10.30;99.90;;;;;;5015448;28;20036;-80
2023/12/19 02:05:23;;;;;;;0.98;0.88;;;10.30;99.90;;;;;;5015085;28;20056;-78
2023/12/19 02:07:49;;;;;;;0.63;0.63;;;10.30;99.90;;;;;;5033690;28;20036;-77
2023/12/19 02:10:15;;;;;;;0.60;0.60;;;10.30;99.90;;;;;;5033808;28;20029;-78
2023/12/19 02:12:42;;;;;;;0.90;0.70;;;10.20;99.90;;;;;;5033093;28;20473;-78
2023/12/19 02:15:09;;;;;;;1.85;0.70;;;10.20;99.90;;;;;;5033216;28;20038;-77
2023/12/19 02:17:34;;;;;;;0.70;0.70;;;10.20;99.90;;;;;;5032959;28;20037;-78
2023/12/19 02:20:00;;;;;;;0.80;0.63;;;10.20;99.90;;;;;;5015082;28;20397;-80
2023/12/19 02:22:27;;;;;;;0.50;0.50;;;10.20;99.90;;;;;;5033154;28;20032;-77
2023/12/19 02:24:52;;;;;;;1.83;0.90;;;10.20;99.90;;;;;;5014803;28;20040;-77
2023/12/19 02:27:22;;;;;;;2.03;0.90;;;10.10;99.90;;;;;;5015318;28;20025;-79
2023/12/19 02:29:47;;;;;;;1.27;0.73;;;10.10;99.90;;;;;;5015772;28;20040;-78
2023/12/19 02:32:13;;;;;;;0.73;0.60;;;10.10;99.90;;;;;;5015893;28;20033;-79
2023/12/19 02:34:39;;;;;;;1.77;1.00;;;10.10;99.90;;;;;;5031940;28;20029;-76
2023/12/19 02:37:05;;;;;;;1.38;0.80;;;10.10;99.90;;;;;;5032323;28;20025;-81
2023/12/19 02:39:30;;;;;;;1.10;0.60;;;10.00;99.90;;;;;;5015053;28;20025;-77
2023/12/19 02:41:56;;;;;;;3.45;0.77;;;10.00;99.90;;;;;;5032780;28;20120;-77
2023/12/19 02:44:22;;;;;;;0.60;0.60;;;10.00;99.90;;;;;;5015404;28;20033;-77
2023/12/19 02:46:47;;;;;;;1.00;0.90;;;10.00;99.90;;;;;;5033354;28;20056;-80
2023/12/19 02:49:13;;;;;;;0.60;0.60;;;9.90;99.90;;;;;;5014853;28;20021;-76
2023/12/19 02:51:39;;;;;;;1.95;0.98;;;9.90;99.90;;;;;;5032855;28;20425;-77
2023/12/19 02:54:05;;;;;;;2.42;0.75;;;9.90;99.90;;;;;;5032456;28;20052;-77
2023/12/19 02:56:34;;;;;;;3.63;0.90;;;9.90;99.90;;;;;;5032515;28;20021;-77
2023/12/19 02:59:00;;;;;;;0.70;0.70;;;9.90;99.90;;;;;;5014791;28;20604;-77
2023/12/19 03:01:26;;;;;;;4.65;1.20;;;9.80;99.90;;;;;;5032602;28;20099;-77
2023/12/19 03:03:51;;;;;;;0.77;0.70;;;9.80;99.90;;;;;;5031961;28;20030;-76
2023/12/19 03:06:17;;;;;;;1.08;0.70;;;9.80;99.90;;;;;;5014617;28;20038;-76
2023/12/19 03:08:47;;;;;;;0.88;0.82;;;9.80;99.90;;;;;;5032435;28;20079;-78
2023/12/19 03:11:16;;;;;;;3.03;1.08;;;9.80;99.90;;;;;;5032056;28;20028;-80
2023/12/19 03:13:41;;;;;;;1.30;1.00;;;9.80;99.90;;;;;;5014124;28;20032;-76
2023/12/19 03:16:07;;;;;;;1.58;1.10;;;9.80;99.90;;;;;;5032760;28;20025;-79
2023/12/19 03:18:33;;;;;;;0.90;0.80;;;9.80;99.90;;;;;;5031065;28;20093;-77
2023/12/19 03:20:59;;;;;;;2.03;0.80;;;9.70;99.90;;;;;;5032053;28;20038;-77
2023/12/19 03:23:26;;;;;;;1.08;0.82;;;9.70;99.90;;;;;;5014598;28;20040;-76
2023/12/19 03:25:52;;;;;;;1.45;0.70;;;9.70;99.90;;;;;;5032165;28;20084;-77
2023/12/19 03:28:18;;;;;;;1.10;0.90;;;9.70;99.90;;;;;;5031992;28;20025;-78
2023/12/19 03:30:44;;;;;;;1.17;0.77;;;9.70;99.90;;;;;;5031754;28;20040;-76
2023/12/19 03:33:09;;;;;;;1.30;0.90;;;9.70;99.90;;;;;;5031835;28;20436;-76
2023/12/19 03:35:35;;;;;;;2.03;0.80;;;9.70;99.90;;;;;;5032548;28;20420;-76
2023/12/19 03:38:01;;;;;;;1.30;0.88;;;9.70;99.90;;;;;;5030427;28;20026;-77
2023/12/19 03:40:27;;;;;;;1.65;0.80;;;9.70;99.90;;;;;;5032164;28;20033;-76
2023/12/19 03:42:53;;;;;;;1.13;0.73;;;9.70;99.90;;;;;;5032217;28;20057;-77
2023/12/19 03:45:18;;;;;;;0.98;0.98;;;9.70;99.90;;;;;;5031524;28;20033;-78
2023/12/19 03:47:44;;;;;;;0.88;0.80;;;9.70;99.90;;;;;;5031204;28;20401;-76
2023/12/19 03:50:10;;;;;;;1.52;0.88;;;9.80;99.90;;;;;;5031932;28;20456;-81
2023/12/19 03:52:36;;;;;;;1.52;0.90;;;9.70;99.90;;;;;;5014168;28;20083;-75
2023/12/19 03:55:02;;;;;;;2.50;0.93;;;9.70;99.90;;;;;;5014441;28;20026;-79
2023/12/19 03:57:28;;;;;;;1.00;0.90;;;9.70;99.90;;;;;;5014006;28;20029;-76
2023/12/19 03:59:54;;;;;;;2.58;1.00;;;9.60;99.90;;;;;;5032083;28;20056;-76
2023/12/19 04:02:19;;;;;;;0.82;0.80;;;9.60;99.90;;;;;;5031054;28;20492;-76
2023/12/19 04:04:45;;;;;;;0.90;0.75;;;9.60;99.90;;;;;;5031332;28;20041;-79
2023/12/19 04:07:11;;;;;;;0.75;0.70;;;9.50;99.90;;;;;;5013827;28;20324;-76
2023/12/19 04:09:37;;;;;;;2.35;1.00;;;9.50;99.90;;;;;;5031697;28;20037;-76
2023/12/19 04:12:03;;;;;;;1.58;0.82;;;9.40;99.90;;;;;;5014032;28;20469;-75
2023/12/19 04:14:33;;;;;;;0.70;0.68;;;9.40;99.90;;;;;;5031819;28;20022;-75
2023/12/19 04:16:59;;;;;;;2.47;0.95;;;9.40;99.90;;;;;;5013326;28;20416;-75
2023/12/19 04:19:25;;;;;;;2.42;0.88;;;9.40;99.90;;;;;;5013882;28;20540;-76
2023/12/19 04:21:51;;;;;;;1.70;0.90;;;9.40;99.90;;;;;;5031947;28;20030;-77
2023/12/19 04:24:19;;;;;;;2.47;0.98;;;9.40;99.90;;;;;;5031548;28;20052;-76
2023/12/19 04:26:48;;;;;;;1.05;0.70;;;9.30;99.90;;;;;;5031655;28;20025;-76
2023/12/19 04:29:14;;;;;;;4.13;1.17;;;9.30;99.90;;;;;;5033605;28;20025;-79
2023/12/19 04:31:41;;;;;;;0.98;0.90;;;9.30;99.90;;;;;;5016770;28;20056;-78
2023/12/19 04:34:07;;;;;;;1.38;1.27;;;9.30;99.90;;;;;;5034318;28;20021;-79
2023/12/19 04:36:33;;;;;;;3.08;1.00;;;9.30;99.90;;;;;;5017783;28;20128;-76
2023/12/19 04:38:59;;;;;;;3.17;1.40;;;9.20;99.90;;;;;;5035414;28;20473;-76
2023/12/19 04:41:24;;;;;;;1.45;1.35;;;9.20;99.90;;;;;;5017809;28;20029;-77
2023/12/19 04:43:50;;;;;;;2.25;2.00;;;9.20;99.90;;;;;;5035281;28;20397;-76
2023/12/19 04:46:16;;;;;;;4.22;1.75;;;9.20;99.90;;;;;;5035214;28;20037;-76
2023/12/19 04:48:42;;;;;;;2.50;1.88;;;9.20;99.90;;;;;;5017483;28;20036;-76
2023/12/19 04:51:18;;;;;;;2.40;2.10;;;9.20;99.90;;;;;;5035072;28;20026;-76
2023/12/19 04:53:45;;;;;;;4.45;1.70;;;9.20;99.90;;;;;;5035131;28;20033;-76
2023/12/19 04:56:11;;;;;;;5.03;2.13;;;9.10;99.90;;;;;;5035085;28;20029;-76
2023/12/19 04:58:37;;;;;;;2.28;2.00;;;9.10;99.90;;;;;;5034647;28;20389;-79
2023/12/19 05:01:03;;;;;;;3.10;1.60;;;9.10;99.90;;;;;;5017288;28;20459;-76
2023/12/19 05:03:29;;;;;;;2.50;1.75;;;9.20;99.90;;;;;;5035176;28;20037;-75
2023/12/19 05:05:55;;;;;;;4.47;1.95;;;9.20;99.90;;;;;;5016620;28;20515;-79
2023/12/19 05:08:20;;;;;;;3.05;1.73;;;9.10;99.90;;;;;;5034725;28;20030;-77
2023/12/19 05:10:46;;;;;;;2.42;1.80;;;9.10;99.90;;;;;;5017112;28;20053;-76
2023/12/19 05:13:12;;;;;;;3.78;1.70;;;9.10;99.90;;;;;;5017224;28;20025;-79
2023/12/19 05:15:38;;;;;;;3.42;1.80;;;9.10;99.90;;;;;;5017360;28;20025;-76
2023/12/19 05:18:04;;;;;;;5.15;1.60;;;9.10;99.90;;;;;;5035049;28;20470;-76
2023/12/19 05:20:30;;;;;;;3.50;1.67;;;9.10;99.90;;;;;;5034321;28;20045;-77
2023/12/19 05:22:55;;;;;;;3.88;1.50;;;9.10;99.90;;;;;;5016363;28;20037;-79
2023/12/19 05:25:21;;;;;;;2.13;1.63;;;9.10;99.90;;;;;;5016348;28;20037;-76
2023/12/19 05:27:47;;;;;;;3.17;1.73;;;9.00;99.90;;;;;;5033900;28;20053;-77
2023/12/19 05:30:13;;;;;;;5.65;1.85;;;9.10;99.90;;;;;;5034571;28;20017;-77
2023/12/19 05:32:39;;;;;;;3.42;1.58;;;9.00;99.90;;;;;;5033688;28;20475;-77
2023/12/19 05:35:05;;;;;;;2.00;1.85;;;9.00;99.90;;;;;;5016487;28;20386;-77
2023/12/19 05:37:31;;;;;;;2.03;1.67;;;9.00;99.90;;;;;;5015771;28;20026;-78
2023/12/19 05:39:57;;;;;;;4.70;1.90;;;9.00;99.90;;;;;;5033100;28;20032;-80
2023/12/19 05:42:24;;;;;;;4.18;1.98;;;9.00;99.90;;;;;;5033110;28;20030;-76
2023/12/19 05:44:49;;;;;;;12.48;2.42;;;9.10;99.90;;;;;;5033865;28;20053;-77
2023/12/19 05:47:15;;;;;;;6.55;2.10;;;9.10;99.90;;;;;;5016287;28;20048;-77
2023/12/19 05:49:41;;;;;;;4.38;1.95;;;9.00;99.90;;;;;;5016325;28;20061;-78
2023/12/19 05:52:07;;;;;;;4.70;2.20;;;9.00;99.90;;;;;;5033913;28;20029;-79
2023/12/19 05:54:33;;;;;;;4.47;2.63;;;9.10;99.90;;;;;;5033798;28;20482;-77
2023/12/19 05:56:59;;;;;;;4.07;2.60;;;9.00;99.90;;;;;;5033344;28;20293;-77
2023/12/19 05:59:25;;;;;;;5.45;2.50;;;9.00;99.90;;;;;;5015102;28;20025;-77
2023/12/19 06:01:50;;;;;;;2.58;2.35;;;9.10;99.90;;;;;;5015482;28;20033;-78
2023/12/19 06:04:16;;;;;;;5.53;2.58;;;9.00;99.90;;;;;;5033629;28;20441;-77
2023/12/19 06:06:44;;;;;;;4.93;2.00;;;9.10;99.90;;;;;;5015620;28;20492;-76
2023/12/19 06:09:13;;;;;;;4.07;2.13;;;9.10;99.90;;;;;;5015818;28;20491;-78
2023/12/19 06:11:39;;;;;;;4.68;2.45;;;9.00;99.90;;;;;;5014866;28;20392;-77
2023/12/19 06:14:05;;;;;;;3.33;2.10;;;9.10;99.90;;;;;;5033339;28;20108;-77
2023/12/19 06:16:32;;;;;;;5.65;2.45;;;9.10;99.90;;;;;;5033001;28;20108;-75
2023/12/19 06:18:58;;;;;;;3.85;2.03;;;9.00;99.90;;;;;;5014836;28;20056;-77
2023/12/19 06:21:24;;;;;;;3.92;2.08;;;9.00;99.90;;;;;;5032645;28;20037;-77
2023/12/19 06:23:50;;;;;;;5.90;2.33;;;9.00;99.90;;;;;;5033000;28;20029;-81
2023/12/19 06:26:16;;;;;;;3.67;2.05;;;9.00;99.90;;;;;;5033075;28;20025;-76
2023/12/19 06:28:42;;;;;;;5.38;2.35;;;9.00;99.90;;;;;;5015468;28;20030;-77
2023/12/19 06:31:08;;;;;;;5.82;2.20;;;9.00;99.90;;;;;;5014713;28;20098;-77
2023/12/19 06:33:36;;;;;;;3.25;1.88;;;9.00;99.90;;;;;;5032218;28;20025;-77
2023/12/19 06:36:02;;;;;;;3.45;1.63;;;9.00;99.90;;;;;;5032561;28;20536;-79
2023/12/19 06:38:29;;;;;;;6.10;1.85;;;9.00;99.90;;;;;;5014480;28;20033;-81
2023/12/19 06:40:55;;;;;;;2.20;2.00;;;9.00;99.90;;;;;;5014803;28;20108;-78
2023/12/19 06:43:21;;;;;;;5.03;2.60;;;9.00;99.90;;;;;;5032958;28;20061;-77
2023/12/19 06:45:46;;;;;;;3.00;2.30;;;9.00;99.90;;;;;;5007382;28;20107;-76
2023/12/19 06:48:13;;;;;;;3.55;2.17;;;9.00;99.90;;;;;;5031474;28;20022;-81
2023/12/19 06:50:45;;;;;;;7.50;2.90;;;9.00;99.90;;;;;;5012077;28;20488;-79
2023/12/19 06:53:11;;;;;;;5.38;3.20;;;9.00;99.90;;;;;;5031503;28;20476;-77
2023/12/19 06:55:37;;;;;;;5.68;2.88;;;9.00;99.90;;;;;;5032010;28;20116;-77
2023/12/19 06:58:03;;;;;;;5.05;3.35;;;9.00;99.90;;;;;;5029106;28;20049;-77
2023/12/19 07:00:29;;;;;;;6.88;3.70;;;9.00;99.90;;;;;;5006048;28;20054;-79
2023/12/19 07:02:55;;;;;;;13.38;3.47;;;8.90;99.90;;;;;;5007103;28;20034;-77
2023/12/19 07:05:21;;;;;;;4.22;3.67;;;9.00;99.90;;;;;;5026806;28;20559;-78
2023/12/19 07:07:51;;;;;;;4.68;3.33;;;8.90;99.90;;;;;;5013769;28;20045;-80
2023/12/19 07:10:16;;;;;;;5.45;4.63;;;9.00;99.90;;;;;;5012775;28;20030;-75
2023/12/19 07:12:42;;;;;;;7.30;3.72;;;9.00;99.90;;;;;;5030095;28;20034;-81
2023/12/19 07:15:08;;;;;;;8.27;3.33;;;8.90;99.90;;;;;;5020957;28;20029;-81
2023/12/19 07:17:34;;;;;;;5.25;3.83;;;8.90;99.90;;;;;;5003687;28;20536;-80
2023/12/19 07:20:00;;;;;;;6.70;3.70;;;9.00;99.90;;;;;;4995089;28;20026;-77
2023/12/19 07:22:25;;;;;;;4.63;3.25;;;8.90;99.90;;;;;;5012860;28;20459;-78
2023/12/19 07:24:51;;;;;;;12.68;3.92;;;9.00;99.90;;;;;;5012256;28;20125;-78
2023/12/19 07:27:17;;;;;;;4.22;3.28;;;9.00;99.90;;;;;;5012760;28;20116;-77
2023/12/19 07:29:42;;;;;;;5.60;2.88;;;8.90;99.90;;;;;;5012328;28;20041;-76
2023/12/19 07:32:11;;;;;;;9.23;3.10;;;8.90;99.90;;;;;;5012346;28;20383;-80
2023/12/19 07:34:37;;;;;;;3.17;2.22;;;8.90;99.90;;;;;;5001363;28;20314;-76
2023/12/19 07:37:03;;;;;;;3.00;2.70;;;9.00;99.90;;;;;;5013206;28;20409;-80
2023/12/19 07:39:28;;;;;;;5.72;2.90;;;9.00;99.90;;;;;;5031155;28;20163;-77
2023/12/19 07:41:54;;;;;;;5.53;2.42;;;9.00;99.90;;;;;;5031712;28;20152;-77
2023/12/19 07:44:22;;;;;;;3.33;2.75;;;8.90;99.90;;;;;;5031994;28;20060;-79
2023/12/19 07:46:48;;;;;;;6.68;2.72;;;9.00;99.90;;;;;;5013804;28;20032;-75
2023/12/19 07:49:17;;;;;;;6.95;2.50;;;8.90;99.90;;;;;;5014168;28;20021;-75
2023/12/19 07:51:43;;;;;;;6.88;2.70;;;8.90;99.90;;;;;;5013586;28;20041;-76
2023/12/19 07:54:08;;;;;;;4.28;2.47;;;8.90;99.90;;;;;;5031060;28;20046;-77
2023/12/19 07:56:40;;;;;;;6.55;2.35;;;9.00;99.90;;;;;;5031307;28;20029;-76
2023/12/19 07:59:06;;;;;;;7.03;2.40;;;8.90;99.90;;;;;;5014303;28;20047;-79
2023/12/19 08:01:32;;;;;;;4.88;2.78;;;9.00;99.90;;;;;;5031281;28;20077;-77
2023/12/19 08:03:58;;;;;;;7.22;2.28;;;8.90;99.90;;;;;;5015726;28;20492;-78
2023/12/19 08:06:24;;;;;;;5.18;2.20;;;9.00;99.90;;;;;;5018218;28;20079;-78
2023/12/19 08:08:52;;;;;;;4.63;2.55;;;9.00;99.90;;;;;;5018236;28;20022;-77
2023/12/19 08:11:18;;;;;;;3.33;2.10;;;9.00;99.90;;;;;;5036220;28;20033;-74
2023/12/19 08:13:44;;;;;;;6.47;2.60;;;9.00;99.90;;;;;;5018239;28;20397;-77
2023/12/19 08:16:10;;;;;;;5.38;3.10;;;9.10;99.90;;;;;;5017569;28;20029;-77
2023/12/19 08:18:36;;;;;;;5.82;2.47;;;9.10;99.90;;;;;;5035168;28;20036;-77
2023/12/19 08:21:05;;;;;;;3.72;2.45;;;9.10;99.90;;;;;;5017502;28;20025;-77
2023/12/19 08:23:31;;;;;;;6.57;2.72;;;9.10;99.90;;;;;;5021758;28;20030;-77
2023/12/19 08:25:57;;;;;;;4.25;2.60;;;9.20;99.90;;;;;;5019582;28;20108;-78
2023/12/19 08:28:22;;;;;;;5.03;2.55;;;9.20;99.90;;;;;;5030199;28;20037;-79
2023/12/19 08:30:48;;;;;;;4.97;2.17;;;9.20;99.90;;;;;;5032676;28;20025;-76
2023/12/19 08:33:14;;;;;;;5.07;2.70;;;9.20;99.90;;;;;;5033316;28;20040;-79
2023/12/19 08:35:40;;;;;;;5.40;2.38;;;9.20;99.90;;;;;;5033366;28;20048;-78
2023/12/19 08:38:05;;;;;;;5.70;2.80;;;9.20;99.90;;;;;;5032776;28;20036;-82
2023/12/19 08:40:31;;;;;;;3.00;2.00;;;9.20;99.90;;;;;;5016417;28;20029;-78
2023/12/19 08:42:57;;;;;;;3.10;1.58;;;9.20;99.90;;;;;;5033420;28;20037;-76
2023/12/19 08:45:23;;;;;;;4.20;2.35;;;9.20;99.90;;;;;;5033564;28;20033;-78
2023/12/19 08:47:50;;;;;;;2.55;2.10;;;9.20;99.90;;;;;;5032784;28;20029;-79
2023/12/19 08:50:17;;;;;;;2.97;1.90;;;9.10;99.90;;;;;;5015748;28;20025;-77
2023/12/19 08:52:43;;;;;;;3.15;1.73;;;9.10;99.90;;;;;;5015352;28;20076;-77
2023/12/19 08:55:10;;;;;;;4.68;1.80;;;9.10;99.90;;;;;;5033704;28;20017;-83
2023/12/19 08:57:42;;;;;;;0.85;0.70;;;9.10;99.90;;;;;;5015325;28;20482;-77
2023/12/19 09:00:13;;;;;;;2.22;1.00;;;9.00;99.90;;;;;;5031766;28;20057;-75
2023/12/19 09:02:42;;;;;;;1.77;0.50;;;9.00;99.90;;;;;;5015500;28;20065;-77
2023/12/19 09:05:12;;;;;;;0.50;0.50;;;8.90;99.90;;;;;;5015095;28;20045;-79
2023/12/19 09:07:38;;;;;;;1.05;0.70;;;8.90;99.90;;;;;;5031140;28;20037;-80
2023/12/19 09:10:05;;;;;;;0.63;0.60;;;8.80;99.90;;;;;;5029893;28;20025;-78
2023/12/19 09:12:31;;;;;;;0.50;0.50;;;8.80;99.90;;;;;;5030868;28;20388;-77
2023/12/19 09:14:57;;;;;;;1.15;0.50;;;8.70;99.90;;;;;;5026196;28;20030;-76
2023/12/19 09:17:23;;;;;;;1.98;0.60;;;8.70;99.90;;;;;;5026352;28;20025;-77
2023/12/19 09:19:48;;;;;;;1.75;0.98;;;8.60;99.90;;;;;;5025438;28;20083;-76
2023/12/19 09:22:14;;;;;;;1.02;0.60;;;8.50;99.90;;;;;;5032523;28;20128;-79
2023/12/19 09:24:40;;;;;;;0.75;0.50;;;8.50;99.90;;;;;;5032310;28;20084;-76
2023/12/19 09:27:06;;;;;;;0.98;0.70;;;8.40;99.90;;;;;;5014664;28;20056;-76
2023/12/19 09:29:32;;;;;;;1.02;0.50;;;8.30;99.90;;;;;;5013921;28;20084;-79
2023/12/19 09:32:00;;;;;;;0.93;0.50;;;8.30;99.90;;;;;;5032587;28;20025;-76
2023/12/19 09:34:26;;;;;;;0.30;0.30;;;8.20;99.90;;;;;;5029586;28;20532;-76
2023/12/19 09:36:52;;;;;;;0.95;0.35;;;8.20;99.90;;;;;;5014454;28;20025;-77
2023/12/19 09:39:18;;;;;;;0.63;0.40;;;8.10;99.90;;;;;;5031823;28;20033;-79
2023/12/19 09:41:47;;;;;;;3.03;0.50;;;8.10;99.90;;;;;;5030942;28;20029;-77
2023/12/19 09:44:13;;;;;;;0.68;0.40;;;8.10;99.90;;;;;;5032421;28;20064;-80
2023/12/19 09:46:40;;;;;;;0.30;0.25;;;8.00;99.90;;;;;;5014649;28;20025;-80
2023/12/19 09:49:09;;;;;;;0.98;0.30;;;8.00;99.90;;;;;;5032275;28;20021;-78
2023/12/19 09:51:42;;;;;;;0.10;0.10;;;7.90;99.90;;;;;;5011605;28;20031;-77
2023/12/19 09:54:08;;;;;;;1.17;0.10;;;7.90;99.90;;;;;;5021865;28;20026;-77
2023/12/19 09:56:35;;;;;;;1.88;0.43;;;7.90;99.90;;;;;;5019328;28;20036;-79
2023/12/19 09:59:03;;;;;;;1.73;0.45;;;7.80;99.90;;;;;;5013600;28;20040;-79
2023/12/19 10:01:29;;;;;;;2.15;0.60;;;7.80;99.90;;;;;;5031088;28;20501;-77
2023/12/19 10:03:55;;;;;;;6.82;0.82;;;7.80;99.90;;;;;;5031456;28;20033;-79
2023/12/19 10:06:25;;;;;;;1.02;0.30;;;7.70;99.90;;;;;;5013840;28;20091;-78
2023/12/19 10:08:53;;;;;;;1.27;0.50;;;7.70;99.90;;;;;;5031913;28;20112;-79
2023/12/19 10:11:24;;;;;;;0.90;0.40;;;7.60;99.90;;;;;;5031760;28;20029;-78
2023/12/19 10:13:50;;;;;;;;;;;7.60;99.90;;;;;;5033108;28;20381;-78
2023/12/19 10:16:19;;;;;;;0.82;0.30;;;7.50;99.90;;;;;;5014807;28;19917;-78
2023/12/19 10:18:54;;;;;;;3.08;0.50;;;7.50;99.90;;;;;;5032112;28;20060;-77
2023/12/19 10:21:22;;;;;;;1.10;0.45;;;7.50;99.90;;;;;;5032143;28;20093;-78
2023/12/19 10:23:47;;;;;;;6.03;0.75;;;7.50;99.90;;;;;;5031346;28;20103;-78
2023/12/19 10:26:13;;;;;;;2.35;0.57;;;7.50;99.90;;;;;;5027574;28;20033;-77
2023/12/19 10:28:40;;;;;;;3.33;0.50;;;7.50;99.90;;;;;;5011345;28;20419;-77
2023/12/19 10:31:06;;;;;;;4.13;0.57;;;7.50;99.90;;;;;;5013045;28;20026;-77
2023/12/19 10:33:46;;;;;;;3.63;0.80;;;7.50;99.90;;;;;;5014084;28;20029;-76
2023/12/19 10:36:25;;;;;;;3.95;0.70;;;7.50;99.90;;;;;;5025033;28;20037;-78
2023/12/19 10:38:52;;;;;;;4.85;2.38;;;7.50;99.90;;;;;;5014157;28;20044;-76
2023/12/19 10:41:26;;;;;;;2.50;1.00;;;7.50;99.90;;;;;;5014307;28;20033;-76
2023/12/19 10:43:55;;;;;;;8.55;1.38;;;7.50;99.90;;;;;;5032140;28;20467;-76
2023/12/19 10:46:25;;;;;;;3.63;1.00;;;7.50;99.90;;;;;;5014276;28;20157;-77
2023/12/19 10:48:52;;;;;;;4.20;1.40;;;7.50;99.90;;;;;;5014862;28;20248;-77
2023/12/19 10:51:23;;;;;;;2.47;0.90;;;7.50;99.90;;;;;;5031837;28;20040;-76
2023/12/19 10:53:58;;;;;;;5.85;1.58;;;7.50;99.90;;;;;;5032262;28;20052;-78
2023/12/19 10:56:29;;;;;;;5.38;1.45;;;7.50;99.90;;;;;;5031916;28;20155;-78
2023/12/19 10:58:58;;;;;;;4.90;1.10;;;7.50;99.90;;;;;;5031666;28;20033;-77
2023/12/19 11:01:26;;;;;;;7.70;1.08;;;7.50;99.90;;;;;;5031768;28;20041;-78
2023/12/19 11:03:59;;;;;;;6.32;1.50;;;7.50;99.90;;;;;;5031789;28;20037;-78
2023/12/19 11:06:32;;;;;;;6.18;1.10;;;7.50;99.90;;;;;;5031772;28;20048;-80
2023/12/19 11:09:05;;;;;;;3.40;1.00;;;7.50;99.90;;;;;;5013814;28;20041;-79
2023/12/19 11:11:40;;;;;;;5.53;0.98;;;7.50;99.90;;;;;;5013687;28;20026;-79
2023/12/19 11:14:06;;;;;;;7.45;1.60;;;7.50;99.90;;;;;;5032025;28;20370;-79
2023/12/19 11:16:36;;;;;;;6.53;1.35;;;7.50;99.90;;;;;;5013620;28;20031;-78
2023/12/19 11:19:08;;;;;;;3.30;0.80;;;7.50;99.90;;;;;;5013458;28;20029;-79
2023/12/19 11:21:46;;;;;;;3.60;0.90;;;7.50;99.90;;;;;;5031469;28;20112;-79
2023/12/19 11:24:22;;;;;;;17.52;2.58;;;7.50;99.90;;;;;;5031459;28;20130;-78
2023/12/19 11:27:03;;;;;;;11.80;1.80;;;7.50;99.90;;;;;;5031737;28;20070;-78
2023/12/19 11:29:58;;;;;;;8.90;1.63;;;7.50;99.90;;;;;;5009353;28;20035;-78
2023/12/19 11:32:33;;;;;;;5.97;1.20;;;7.40;99.90;;;;;;4998786;28;20145;-79
2023/12/19 11:35:11;;;;;;;8.52;1.83;;;7.50;99.90;;;;;;5013638;28;20163;-78
2023/12/19 11:37:38;;;;;;;11.13;2.83;;;7.50;99.90;;;;;;5013715;28;20086;-76
2023/12/19 11:40:06;;;;;;;12.63;1.55;;;7.40;99.90;;;;;;5012946;28;20199;-75
2023/12/19 11:42:37;;;;;;;6.53;1.77;;;7.40;99.90;;;;;;5031017;28;20033;-78
2023/12/19 11:45:18;;;;;;;7.70;1.60;;;7.40;99.90;;;;;;5030723;28;20075;-77
2023/12/19 11:47:47;;;;;;;12.65;1.73;;;7.40;99.90;;;;;;5018479;28;20355;-78
2023/12/19 11:50:39;;;;;;;8.10;1.50;;;7.40;99.90;;;;;;5021465;28;20029;-78
2023/12/19 11:53:06;;;;;;;12.95;1.80;;;7.40;99.90;;;;;;5003650;28;20042;-78
2023/12/19 11:55:31;;;;;;;20.83;2.35;;;7.40;99.90;;;;;;5011191;28;20738;-79
2023/12/19 11:58:10;;;;;;;4.70;1.38;;;7.40;99.90;;;;;;5011047;28;20052;-78
2023/12/19 12:00:36;;;;;;;15.02;2.78;;;7.40;99.90;;;;;;5010841;28;20042;-77
2023/12/19 12:03:08;;;;;;;10.63;1.50;;;7.40;99.90;;;;;;5011412;28;20036;-79
2023/12/19 12:05:34;;;;;;;8.05;0.85;;;7.30;99.90;;;;;;4995199;28;20064;-82
2023/12/19 12:08:00;;;;;;;9.63;1.67;;;7.30;99.90;;;;;;5012271;28;20456;-78
2023/12/19 12:10:27;;;;;;;14.02;2.40;;;7.30;99.90;;;;;;5012404;28;20026;-77
2023/12/19 12:13:01;;;;;;;21.55;2.97;;;7.30;99.90;;;;;;5012470;28;20372;-80
2023/12/19 12:15:27;;;;;;;10.35;1.65;;;7.30;99.90;;;;;;4994562;28;20575;-78
2023/12/19 12:18:06;;;;;;;8.45;1.80;;;7.30;99.90;;;;;;5013015;28;20139;-78
2023/12/19 12:20:34;;;;;;;4.32;0.98;;;7.40;99.90;;;;;;4995143;28;20038;-78
2023/12/19 12:23:01;;;;;;;15.73;1.40;;;7.30;99.90;;;;;;4994762;28;20034;-78
2023/12/19 12:25:26;;;;;;;12.98;1.65;;;7.40;99.90;;;;;;5012418;28;20080;-79
2023/12/19 12:27:55;;;;;;;11.48;1.85;;;7.40;99.90;;;;;;5012155;28;20108;-78
2023/12/19 12:30:24;;;;;;;13.27;1.70;;;7.40;99.90;;;;;;5012101;28;20034;-79
2023/12/19 12:32:51;;;;;;;15.57;1.83;;;7.40;99.90;;;;;;5011973;28;20030;-80
2023/12/19 12:35:34;;;;;;;12.93;1.70;;;7.50;99.90;;;;;;4994760;28;20069;-78
2023/12/19 12:38:07;;;;;;;11.15;1.90;;;7.50;99.90;;;;;;4994637;28;20026;-80
2023/12/19 12:40:36;;;;;;;12.50;1.75;;;7.50;99.90;;;;;;5010822;28;20030;-78
2023/12/19 12:43:49;;;;;;;7.43;1.95;;;7.50;99.90;;;;;;5011602;28;20057;-80
2023/12/19 12:46:18;;;;;;;7.35;1.70;;;7.60;99.90;;;;;;5012133;28;20256;-80
2023/12/19 12:48:53;;;;;;;13.82;3.10;;;7.70;99.90;;;;;;5012013;28;20029;-80
2023/12/19 12:51:20;;;;;;;12.60;1.23;;;7.80;99.90;;;;;;4996155;28;20022;-80
2023/12/19 12:53:55;;;;;;;17.10;2.55;;;7.90;99.90;;;;;;5015288;28;20123;-78
2023/12/19 12:56:26;;;;;;;13.27;1.98;;;8.30;99.90;;;;;;5014299;28;20022;-79